Time;durP1;ratioP1;P1;durP2;ratioP2;P2;SDS_P1;SDS_P2;PMS_P1;PMS_P2;Temp;Humidity;BMP_temperature;BMP_pressure;BME280_temperature;BME280_humidity;BME280_pressure;Samples;Min_cycle;Max_cycle;Signal;HPM_P1;HPM_P2
2022/09/06 00:00:56;;;;;;;5.13;4.60;;;20.10;99.90;;;;;;4314601;28;9999802;-73
2022/09/06 00:03:22;;;;;;;5.85;4.60;;;20.10;99.90;;;;;;5007404;28;20101;-73
2022/09/06 00:05:48;;;;;;;4.80;4.40;;;20.10;99.90;;;;;;5007605;28;20440;-73
2022/09/06 00:08:14;;;;;;;6.38;4.15;;;20.10;99.90;;;;;;5017126;28;20037;-73
2022/09/06 00:10:41;;;;;;;5.00;4.50;;;20.10;99.90;;;;;;5017050;28;20025;-73
2022/09/06 00:13:08;;;;;;;4.82;4.28;;;20.10;99.90;;;;;;5004108;28;20030;-73
2022/09/06 00:15:35;;;;;;;5.18;4.68;;;20.10;99.90;;;;;;5014840;28;20069;-72
2022/09/06 00:18:04;;;;;;;6.50;4.90;;;20.20;99.90;;;;;;5014083;28;20037;-72
2022/09/06 00:20:30;;;;;;;5.18;4.70;;;20.20;99.90;;;;;;5018299;28;20627;-73
2022/09/06 00:22:58;;;;;;;6.53;5.13;;;20.20;99.90;;;;;;5016734;28;20036;-73
2022/09/06 00:25:24;;;;;;;6.70;5.30;;;20.20;99.90;;;;;;5017354;28;20034;-73
2022/09/06 00:27:56;;;;;;;9.55;4.97;;;20.20;99.90;;;;;;5014906;28;20049;-73
2022/09/06 00:30:23;;;;;;;7.32;5.47;;;20.20;99.90;;;;;;5014723;28;20505;-73
2022/09/06 00:32:49;;;;;;;5.45;4.95;;;20.20;99.90;;;;;;5017789;28;20037;-74
2022/09/06 00:35:16;;;;;;;5.20;4.70;;;20.10;99.90;;;;;;5016742;28;20026;-73
2022/09/06 00:37:42;;;;;;;5.32;4.80;;;20.10;99.90;;;;;;5022215;28;20025;-73
2022/09/06 00:40:08;;;;;;;5.68;5.07;;;20.10;99.90;;;;;;5014076;28;20084;-73
2022/09/06 00:42:33;;;;;;;5.25;4.72;;;20.00;99.90;;;;;;5010921;28;20844;-73
2022/09/06 00:44:59;;;;;;;6.22;5.63;;;20.00;99.90;;;;;;5017340;28;20022;-73
2022/09/06 00:47:26;;;;;;;6.20;5.05;;;20.00;99.90;;;;;;5020140;28;20034;-74
2022/09/06 00:49:55;;;;;;;5.30;4.80;;;19.90;99.90;;;;;;5013179;28;20021;-73
2022/09/06 00:52:22;;;;;;;5.82;5.00;;;19.90;99.90;;;;;;5008743;28;20481;-73
2022/09/06 00:54:49;;;;;;;8.02;5.43;;;19.90;99.90;;;;;;5008492;28;20039;-73
2022/09/06 00:57:16;;;;;;;6.30;5.22;;;19.90;99.90;;;;;;5016927;28;20119;-74
2022/09/06 00:59:44;;;;;;;5.30;4.80;;;19.80;99.90;;;;;;5013104;28;20623;-73
2022/09/06 01:02:10;;;;;;;5.10;4.60;;;19.80;99.90;;;;;;5022627;28;20116;-74
2022/09/06 01:04:39;;;;;;;5.97;5.43;;;19.80;99.90;;;;;;5014803;28;20099;-73
2022/09/06 01:07:10;;;;;;;6.15;5.38;;;19.80;99.90;;;;;;5011454;28;20069;-73
2022/09/06 01:09:48;;;;;;;6.18;5.57;;;19.80;99.90;;;;;;5006386;28;20080;-73
2022/09/06 01:12:46;;;;;;;6.50;5.60;;;19.80;99.90;;;;;;5009473;28;20041;-73
2022/09/06 01:15:33;;;;;;;7.35;5.32;;;19.70;99.90;;;;;;4986215;28;20033;-73
2022/09/06 01:18:32;;;;;;;5.55;5.05;;;19.70;99.90;;;;;;5015026;28;20417;-73
2022/09/06 01:21:40;;;;;;;4.97;4.57;;;19.70;99.90;;;;;;5020731;28;20037;-74
2022/09/06 01:24:24;;;;;;;5.05;4.55;;;19.60;99.90;;;;;;5013113;28;20030;-72
2022/09/06 01:27:08;;;;;;;5.03;4.63;;;19.60;99.90;;;;;;5009952;28;20034;-72
2022/09/06 01:30:02;;;;;;;5.18;4.78;;;19.50;99.90;;;;;;5012797;28;20056;-73
2022/09/06 01:32:40;;;;;;;5.50;5.00;;;19.30;99.90;;;;;;5020071;28;20041;-73
2022/09/06 01:35:27;;;;;;;6.00;5.40;;;19.30;99.90;;;;;;5009331;28;20017;-72
2022/09/06 01:37:54;;;;;;;6.03;5.40;;;19.20;99.90;;;;;;5012143;28;20521;-73
2022/09/06 01:40:20;;;;;;;6.18;5.57;;;19.20;99.90;;;;;;5007305;28;20360;-72
2022/09/06 01:42:48;;;;;;;6.38;5.68;;;19.20;99.90;;;;;;5011695;28;20042;-72
2022/09/06 01:45:18;;;;;;;7.28;6.28;;;19.30;99.90;;;;;;5010218;28;20033;-73
2022/09/06 01:47:52;;;;;;;8.05;6.07;;;19.30;99.90;;;;;;5018853;28;20025;-73
2022/09/06 01:50:46;;;;;;;6.63;6.00;;;19.30;99.90;;;;;;5011900;28;20075;-73
2022/09/06 01:53:30;;;;;;;6.63;6.00;;;19.40;99.90;;;;;;5009119;28;20026;-73
2022/09/06 01:56:29;;;;;;;8.18;6.13;;;19.40;99.90;;;;;;5014275;28;20045;-74
2022/09/06 01:58:57;;;;;;;6.75;6.15;;;19.40;99.90;;;;;;5013071;28;20046;-72
2022/09/06 02:01:45;;;;;;;7.50;6.03;;;19.40;99.90;;;;;;5008174;28;20631;-73
2022/09/06 02:04:26;;;;;;;7.20;6.55;;;19.40;99.90;;;;;;5014173;28;20041;-73
2022/09/06 02:07:00;;;;;;;7.00;6.30;;;19.40;99.90;;;;;;5016053;28;20125;-73
2022/09/06 02:09:31;;;;;;;6.88;6.18;;;19.40;99.90;;;;;;5019503;28;20033;-73
2022/09/06 02:12:00;;;;;;;5.90;5.38;;;19.40;99.90;;;;;;5016843;28;20568;-74
2022/09/06 02:14:41;;;;;;;6.22;5.70;;;19.40;99.90;;;;;;5014732;28;20045;-73
2022/09/06 02:17:11;;;;;;;9.50;6.38;;;19.40;99.90;;;;;;5009968;28;20033;-72
2022/09/06 02:19:42;;;;;;;5.60;5.10;;;19.40;99.90;;;;;;5015753;28;20082;-73
2022/09/06 02:22:13;;;;;;;5.82;5.18;;;19.30;99.90;;;;;;5008047;28;20021;-74
2022/09/06 02:24:43;;;;;;;6.13;5.50;;;19.30;99.90;;;;;;5017570;28;20033;-73
2022/09/06 02:27:10;;;;;;;5.30;4.80;;;19.30;99.90;;;;;;5016720;28;20038;-72
2022/09/06 02:29:36;;;;;;;5.55;5.05;;;19.30;99.90;;;;;;5015435;28;20022;-73
2022/09/06 02:32:15;;;;;;;5.88;5.28;;;19.20;99.90;;;;;;5018714;28;20382;-73
2022/09/06 02:34:42;;;;;;;5.40;4.90;;;19.20;99.90;;;;;;5014654;28;20032;-73
2022/09/06 02:37:09;;;;;;;6.13;5.50;;;19.20;99.90;;;;;;5021872;28;20033;-73
2022/09/06 02:39:35;;;;;;;7.25;5.57;;;19.20;99.90;;;;;;5020458;28;20121;-73
2022/09/06 02:42:01;;;;;;;5.93;5.30;;;19.10;99.90;;;;;;5017274;28;20108;-73
2022/09/06 02:44:26;;;;;;;7.10;5.63;;;19.10;99.90;;;;;;5025068;28;20497;-73
2022/09/06 02:46:52;;;;;;;6.85;6.07;;;19.10;99.90;;;;;;5015874;28;20060;-73
2022/09/06 02:49:18;;;;;;;6.53;5.80;;;19.10;99.90;;;;;;5018418;28;20021;-73
2022/09/06 02:51:43;;;;;;;7.75;5.70;;;19.20;99.90;;;;;;5021802;28;20025;-73
2022/09/06 02:54:09;;;;;;;6.28;5.65;;;19.10;99.90;;;;;;5020304;28;20052;-73
2022/09/06 02:56:35;;;;;;;6.55;5.95;;;19.10;99.90;;;;;;5019877;28;20037;-73
2022/09/06 02:59:03;;;;;;;6.35;5.85;;;19.20;99.90;;;;;;5025047;28;20045;-74
2022/09/06 03:01:28;;;;;;;6.20;5.43;;;19.10;99.90;;;;;;5011523;28;20124;-74
2022/09/06 03:03:55;;;;;;;6.85;6.25;;;19.10;99.90;;;;;;5017533;28;20117;-74
2022/09/06 03:06:21;;;;;;;6.55;5.93;;;19.10;99.90;;;;;;5005635;28;20738;-73
2022/09/06 03:08:46;;;;;;;6.93;5.90;;;19.10;99.90;;;;;;5022602;28;20056;-74
2022/09/06 03:11:12;;;;;;;6.20;5.60;;;19.10;99.90;;;;;;5022979;28;20018;-73
2022/09/06 03:13:38;;;;;;;6.50;5.88;;;19.10;99.90;;;;;;5008346;28;20035;-73
2022/09/06 03:16:04;;;;;;;5.93;5.43;;;19.10;99.90;;;;;;5011120;28;20114;-73
2022/09/06 03:18:30;;;;;;;5.90;5.40;;;19.00;99.90;;;;;;5018960;28;20063;-73
2022/09/06 03:20:57;;;;;;;5.70;5.20;;;19.00;99.90;;;;;;5023745;28;20064;-74
2022/09/06 03:23:25;;;;;;;6.57;5.97;;;19.00;99.90;;;;;;5010283;28;20401;-73
2022/09/06 03:25:51;;;;;;;8.07;5.35;;;19.00;99.90;;;;;;5010257;28;20038;-73
2022/09/06 03:28:18;;;;;;;5.97;5.47;;;18.90;99.90;;;;;;5020073;28;20052;-73
2022/09/06 03:30:45;;;;;;;6.38;5.78;;;18.90;99.90;;;;;;5028281;28;20029;-74
2022/09/06 03:33:11;;;;;;;6.13;5.50;;;18.90;99.90;;;;;;5009258;28;20034;-74
2022/09/06 03:35:37;;;;;;;6.57;5.82;;;18.90;99.90;;;;;;5022346;28;20084;-73
2022/09/06 03:38:02;;;;;;;7.15;6.00;;;18.90;99.90;;;;;;5013273;28;20049;-73
2022/09/06 03:40:28;;;;;;;7.25;6.00;;;18.90;99.90;;;;;;5020387;28;20486;-74
2022/09/06 03:42:55;;;;;;;6.10;5.50;;;18.90;99.90;;;;;;5011150;28;20026;-73
2022/09/06 03:45:20;;;;;;;9.07;6.32;;;18.90;99.90;;;;;;5023754;28;20025;-74
2022/09/06 03:47:46;;;;;;;7.68;6.07;;;18.90;99.90;;;;;;5019142;28;20071;-73
2022/09/06 03:50:12;;;;;;;7.90;6.70;;;18.80;99.90;;;;;;5012737;28;20045;-73
2022/09/06 03:52:37;;;;;;;7.72;6.35;;;18.80;99.90;;;;;;5002262;28;20040;-73
2022/09/06 03:55:04;;;;;;;7.60;6.28;;;18.90;99.90;;;;;;5016120;28;20094;-73
2022/09/06 03:57:30;;;;;;;7.97;6.68;;;18.90;99.90;;;;;;5012877;28;20097;-73
2022/09/06 03:59:55;;;;;;;6.75;6.15;;;18.90;99.90;;;;;;5015590;28;20078;-74
2022/09/06 04:02:21;;;;;;;6.65;6.05;;;18.90;99.90;;;;;;5011353;28;20025;-73
2022/09/06 04:04:47;;;;;;;6.82;6.22;;;18.90;99.90;;;;;;5016893;28;20049;-73
2022/09/06 04:07:12;;;;;;;6.50;5.90;;;18.80;99.90;;;;;;5021156;28;20103;-73
2022/09/06 04:09:38;;;;;;;5.85;5.22;;;18.90;99.90;;;;;;5010734;28;20394;-74
2022/09/06 04:12:04;;;;;;;7.07;6.38;;;18.90;99.90;;;;;;5015985;28;20037;-73
2022/09/06 04:14:29;;;;;;;6.75;6.15;;;18.80;99.90;;;;;;5016331;28;20014;-73
2022/09/06 04:16:55;;;;;;;6.53;5.93;;;18.80;99.90;;;;;;5019904;28;20067;-74
2022/09/06 04:19:21;;;;;;;6.40;5.80;;;18.80;99.90;;;;;;5017546;28;20029;-73
2022/09/06 04:21:46;;;;;;;6.78;6.18;;;18.80;99.90;;;;;;5014130;28;20662;-73
2022/09/06 04:24:12;;;;;;;6.05;5.50;;;18.80;99.90;;;;;;5015347;28;20500;-73
2022/09/06 04:26:38;;;;;;;6.63;5.90;;;18.80;99.90;;;;;;5023766;28;20025;-73
2022/09/06 04:29:04;;;;;;;6.97;6.28;;;18.80;99.90;;;;;;5019272;28;20021;-73
2022/09/06 04:31:29;;;;;;;7.60;6.90;;;18.80;99.90;;;;;;5008804;28;20434;-73
2022/09/06 04:33:55;;;;;;;7.10;6.40;;;18.80;99.90;;;;;;5005691;28;20040;-73
2022/09/06 04:36:21;;;;;;;6.55;5.97;;;18.60;99.90;;;;;;5007808;28;20121;-73
2022/09/06 04:38:46;;;;;;;6.70;6.10;;;18.50;99.90;;;;;;5017252;28;20033;-74
2022/09/06 04:41:14;;;;;;;7.07;6.43;;;18.40;99.90;;;;;;5013232;28;20401;-74
2022/09/06 04:43:40;;;;;;;7.05;6.38;;;18.50;99.90;;;;;;5016128;28;20014;-74
2022/09/06 04:46:28;;;;;;;7.72;6.90;;;18.40;99.90;;;;;;5020025;28;20313;-73
2022/09/06 04:48:55;;;;;;;6.97;6.28;;;18.40;99.90;;;;;;5016032;28;20041;-74
2022/09/06 04:51:22;;;;;;;9.35;6.07;;;18.40;99.90;;;;;;5004353;28;20025;-73
2022/09/06 04:53:48;;;;;;;9.05;6.90;;;18.50;99.90;;;;;;5011157;28;20496;-74
2022/09/06 04:56:17;;;;;;;7.00;6.38;;;18.50;99.90;;;;;;5006417;28;20104;-74
2022/09/06 04:58:43;;;;;;;7.30;6.60;;;18.50;99.90;;;;;;5017774;28;20111;-73
2022/09/06 05:01:09;;;;;;;7.68;6.88;;;18.60;99.90;;;;;;5006562;28;20303;-73
2022/09/06 05:03:35;;;;;;;8.60;7.30;;;18.70;99.90;;;;;;5013932;28;20502;-74
2022/09/06 05:06:09;;;;;;;7.88;7.07;;;18.70;99.90;;;;;;5011197;28;20026;-73
2022/09/06 05:08:37;;;;;;;8.35;6.70;;;18.60;99.90;;;;;;5015358;28;20040;-73
2022/09/06 05:11:02;;;;;;;9.32;6.63;;;18.60;99.90;;;;;;5012340;28;20120;-73
2022/09/06 05:13:28;;;;;;;8.38;6.75;;;18.60;99.90;;;;;;5023676;28;20148;-73
2022/09/06 05:15:53;;;;;;;6.78;6.20;;;18.60;99.90;;;;;;5015511;28;20029;-73
2022/09/06 05:18:19;;;;;;;8.60;6.75;;;18.60;99.90;;;;;;5011101;28;20445;-73
2022/09/06 05:20:51;;;;;;;6.60;6.00;;;18.50;99.90;;;;;;5015512;28;20025;-73
2022/09/06 05:23:16;;;;;;;6.32;5.82;;;18.50;99.90;;;;;;5009610;28;20258;-73
2022/09/06 05:25:42;;;;;;;6.88;6.28;;;18.50;99.90;;;;;;5015657;28;20036;-73
2022/09/06 05:28:07;;;;;;;7.90;6.55;;;18.50;99.90;;;;;;5011224;28;20037;-74
2022/09/06 05:30:33;;;;;;;7.30;6.60;;;18.50;99.90;;;;;;5005635;28;20030;-74
2022/09/06 05:32:59;;;;;;;6.93;6.22;;;18.50;99.90;;;;;;5015946;28;20022;-73
2022/09/06 05:35:24;;;;;;;7.38;6.10;;;18.50;99.90;;;;;;5017477;28;20532;-73
2022/09/06 05:37:50;;;;;;;7.22;6.28;;;18.60;99.90;;;;;;5004525;28;20021;-73
2022/09/06 05:40:15;;;;;;;7.57;6.80;;;18.60;99.90;;;;;;5018202;28;20020;-73
2022/09/06 05:42:41;;;;;;;7.32;6.60;;;18.60;99.90;;;;;;5008953;28;20033;-73
2022/09/06 05:45:07;;;;;;;6.97;6.28;;;18.70;99.90;;;;;;5002534;28;20021;-73
2022/09/06 05:47:34;;;;;;;8.10;6.65;;;18.70;99.90;;;;;;5006621;28;20033;-73
2022/09/06 05:50:00;;;;;;;8.63;6.57;;;18.70;99.90;;;;;;5009725;28;20052;-74
2022/09/06 05:52:26;;;;;;;7.60;6.57;;;18.70;99.90;;;;;;5004928;28;20026;-73
2022/09/06 05:54:51;;;;;;;7.78;6.13;;;18.70;99.90;;;;;;5010865;28;20048;-73
2022/09/06 05:57:17;;;;;;;7.00;6.30;;;18.70;99.90;;;;;;5013052;28;20599;-73
2022/09/06 05:59:42;;;;;;;6.80;6.00;;;18.70;99.90;;;;;;5009951;28;20096;-73
2022/09/06 06:02:08;;;;;;;8.35;6.60;;;18.70;99.90;;;;;;5008600;28;20029;-73
2022/09/06 06:04:34;;;;;;;7.10;6.50;;;18.70;99.90;;;;;;5008919;28;20030;-73
2022/09/06 06:07:00;;;;;;;7.32;6.63;;;18.70;99.90;;;;;;5013945;28;20701;-74
2022/09/06 06:09:26;;;;;;;7.45;6.05;;;18.80;99.90;;;;;;5017379;28;20030;-73
2022/09/06 06:11:51;;;;;;;7.63;6.25;;;18.80;99.90;;;;;;5010556;28;20052;-73
2022/09/06 06:14:17;;;;;;;6.93;6.22;;;18.80;99.90;;;;;;5017019;28;20028;-73
2022/09/06 06:16:42;;;;;;;7.38;6.57;;;18.90;99.90;;;;;;5012970;28;20481;-73
2022/09/06 06:19:08;;;;;;;7.82;6.82;;;18.90;99.90;;;;;;5019279;28;20117;-73
2022/09/06 06:21:34;;;;;;;7.28;6.40;;;18.90;99.90;;;;;;5010386;28;20526;-73
2022/09/06 06:24:02;;;;;;;9.40;7.03;;;18.90;99.90;;;;;;5021009;28;20065;-73
2022/09/06 06:26:30;;;;;;;7.55;6.82;;;19.10;99.90;;;;;;5016231;28;20035;-74
2022/09/06 06:28:57;;;;;;;8.23;6.53;;;19.10;99.90;;;;;;5015938;28;20044;-73
2022/09/06 06:31:23;;;;;;;7.78;6.38;;;19.20;99.90;;;;;;5013282;28;20634;-74
2022/09/06 06:33:49;;;;;;;7.80;7.00;;;19.30;99.90;;;;;;5021690;28;20026;-73
2022/09/06 06:36:15;;;;;;;10.25;7.35;;;19.30;99.90;;;;;;5015657;28;20021;-73
2022/09/06 06:38:43;;;;;;;8.02;6.88;;;19.40;99.90;;;;;;5015494;28;20501;-72
2022/09/06 06:41:10;;;;;;;8.10;6.75;;;19.40;99.90;;;;;;5011807;28;20021;-73
2022/09/06 06:43:36;;;;;;;11.07;7.10;;;19.50;99.90;;;;;;5016201;28;20497;-72
2022/09/06 06:46:16;;;;;;;7.35;6.60;;;19.50;99.90;;;;;;5021906;28;20038;-73
2022/09/06 06:48:44;;;;;;;8.95;6.28;;;19.60;99.90;;;;;;5016350;28;20040;-73
2022/09/06 06:51:15;;;;;;;7.82;7.03;;;19.60;99.90;;;;;;5019561;28;20022;-73
2022/09/06 06:53:41;;;;;;;12.30;7.30;;;19.70;99.90;;;;;;5016692;28;20026;-73
2022/09/06 06:56:37;;;;;;;9.45;7.05;;;19.70;99.90;;;;;;5014180;28;20033;-74
2022/09/06 06:59:05;;;;;;;8.10;6.57;;;19.80;99.90;;;;;;5005660;28;20124;-74
2022/09/06 07:01:33;;;;;;;6.88;6.18;;;19.90;99.90;;;;;;5015369;28;20041;-73
2022/09/06 07:03:58;;;;;;;7.97;6.15;;;20.00;99.90;;;;;;5009651;28;20095;-73
2022/09/06 07:06:26;;;;;;;8.10;6.18;;;20.10;99.90;;;;;;5008504;28;20033;-74
2022/09/06 07:08:52;;;;;;;8.40;6.00;;;20.20;99.90;;;;;;5016708;28;20087;-73
2022/09/06 07:11:18;;;;;;;6.60;5.90;;;20.30;99.90;;;;;;5005759;28;20029;-73
2022/09/06 07:13:44;;;;;;;8.95;5.70;;;20.50;99.90;;;;;;5017528;28;20022;-73
2022/09/06 07:16:19;;;;;;;6.65;6.03;;;20.50;99.90;;;;;;5012857;28;20017;-74
2022/09/06 07:18:45;;;;;;;7.80;5.82;;;20.60;99.90;;;;;;5016855;28;20029;-74
2022/09/06 07:21:14;;;;;;;7.50;5.95;;;20.60;99.90;;;;;;5013974;28;20484;-74
2022/09/06 07:23:41;;;;;;;6.25;5.65;;;20.60;99.90;;;;;;5007022;28;20034;-74
2022/09/06 07:26:07;;;;;;;6.88;5.47;;;20.60;99.90;;;;;;5014211;28;20033;-74
2022/09/06 07:28:33;;;;;;;7.95;5.60;;;20.70;99.90;;;;;;5012168;28;20028;-74
2022/09/06 07:30:59;;;;;;;7.32;5.72;;;20.70;99.90;;;;;;5013791;28;20117;-72
2022/09/06 07:33:25;;;;;;;8.07;5.75;;;20.70;99.90;;;;;;5013496;28;20164;-73
2022/09/06 07:36:02;;;;;;;6.20;5.60;;;20.70;99.90;;;;;;5007605;28;20025;-73
2022/09/06 07:38:31;;;;;;;7.15;5.57;;;20.70;99.90;;;;;;5019327;28;20120;-72
2022/09/06 07:40:59;;;;;;;5.88;5.30;;;20.80;99.90;;;;;;5022294;28;20029;-73
2022/09/06 07:43:27;;;;;;;7.40;5.25;;;20.80;99.90;;;;;;5012912;28;20025;-73
2022/09/06 07:45:59;;;;;;;6.97;4.88;;;20.90;99.90;;;;;;5015452;28;20025;-73
2022/09/06 07:48:26;;;;;;;6.20;5.60;;;21.00;99.90;;;;;;5008964;28;20108;-73
2022/09/06 07:50:52;;;;;;;7.38;5.95;;;21.20;99.90;;;;;;5011412;28;20508;-73
2022/09/06 07:53:17;;;;;;;9.52;5.88;;;21.30;99.90;;;;;;5013331;28;20017;-73
2022/09/06 07:55:43;;;;;;;5.97;5.05;;;21.50;99.90;;;;;;5016234;28;20898;-73
2022/09/06 07:58:09;;;;;;;5.70;5.20;;;21.60;99.90;;;;;;5019970;28;20037;-73
2022/09/06 08:00:37;;;;;;;6.40;5.80;;;21.80;99.90;;;;;;5013938;28;20045;-73
2022/09/06 08:03:03;;;;;;;6.45;5.07;;;21.90;99.90;;;;;;5009639;28;20025;-73
2022/09/06 08:05:28;;;;;;;6.47;5.28;;;21.90;99.90;;;;;;5006739;28;20033;-73
2022/09/06 08:07:54;;;;;;;10.02;6.00;;;22.00;99.90;;;;;;5017815;28;20058;-72
2022/09/06 08:10:19;;;;;;;6.50;5.07;;;22.00;99.90;;;;;;5013979;28;20036;-73
2022/09/06 08:12:45;;;;;;;6.45;5.68;;;22.00;99.90;;;;;;5005056;28;20057;-73
2022/09/06 08:15:10;;;;;;;9.88;4.82;;;22.00;99.90;;;;;;5017245;28;20436;-73
2022/09/06 08:17:36;;;;;;;7.00;4.60;;;21.90;99.90;;;;;;5014420;28;20037;-73
2022/09/06 08:20:02;;;;;;;6.70;5.07;;;22.00;99.90;;;;;;5014472;28;20332;-73
2022/09/06 08:22:32;;;;;;;7.03;5.18;;;22.00;99.90;;;;;;5012279;28;20033;-73
2022/09/06 08:24:58;;;;;;;7.78;4.60;;;22.00;99.90;;;;;;5021197;28;20242;-73
2022/09/06 08:27:24;;;;;;;5.00;4.30;;;22.30;99.90;;;;;;5017844;28;20041;-73
2022/09/06 08:29:49;;;;;;;4.60;4.20;;;22.60;99.90;;;;;;5013222;28;20390;-74
2022/09/06 08:32:15;;;;;;;6.18;4.40;;;22.80;99.90;;;;;;5013141;28;20021;-73
2022/09/06 08:34:41;;;;;;;6.88;4.28;;;23.10;99.90;;;;;;5005289;28;20036;-76
2022/09/06 08:37:07;;;;;;;5.32;4.45;;;23.50;99.90;;;;;;5008112;28;20033;-76
2022/09/06 08:39:32;;;;;;;8.52;4.40;;;23.70;99.90;;;;;;5006435;28;20041;-76
2022/09/06 08:42:05;;;;;;;4.65;3.90;;;23.90;99.90;;;;;;5004689;28;20387;-76
2022/09/06 08:44:44;;;;;;;6.55;4.05;;;23.90;99.90;;;;;;5011920;28;20479;-76
2022/09/06 08:47:11;;;;;;;8.57;4.68;;;23.90;99.90;;;;;;5006983;28;20123;-77
2022/09/06 08:49:44;;;;;;;10.45;4.80;;;23.90;99.90;;;;;;5015414;28;20473;-76
2022/09/06 08:52:21;;;;;;;9.02;4.43;;;24.20;99.90;;;;;;5013462;28;20030;-76
2022/09/06 08:55:04;;;;;;;5.20;4.25;;;24.50;99.90;;;;;;5009498;28;20385;-76
2022/09/06 08:57:41;;;;;;;;;;;24.70;99.90;;;;;;5006964;28;20394;-76
2022/09/06 09:00:10;;;;;;;3.88;3.53;;;24.70;99.90;;;;;;5015263;28;20519;-76
2022/09/06 09:03:15;;;;;;;7.07;3.50;;;24.70;98.80;;;;;;5003998;28;20034;-76
2022/09/06 09:05:42;;;;;;;5.57;3.53;;;24.60;98.60;;;;;;5006036;28;20537;-77
2022/09/06 09:08:41;;;;;;;6.57;3.45;;;24.50;98.50;;;;;;5025285;28;20059;-77
2022/09/06 09:11:21;;;;;;;7.18;3.75;;;24.40;98.40;;;;;;5013334;28;20022;-76
2022/09/06 09:13:52;;;;;;;6.28;3.33;;;24.20;98.70;;;;;;5005337;28;20033;-77
2022/09/06 09:16:18;;;;;;;9.63;3.72;;;24.30;99.00;;;;;;5016721;28;20615;-76
2022/09/06 09:18:47;;;;;;;13.50;3.38;;;24.30;98.80;;;;;;5010854;28;20038;-77
2022/09/06 09:21:16;;;;;;;7.60;3.50;;;24.40;98.50;;;;;;5015937;28;20044;-77
2022/09/06 09:23:42;;;;;;;7.28;3.30;;;24.60;97.90;;;;;;5017151;28;20037;-76
2022/09/06 09:26:14;;;;;;;5.95;3.20;;;24.90;97.40;;;;;;5009944;28;20056;-76
2022/09/06 09:29:10;;;;;;;6.90;3.08;;;25.10;96.90;;;;;;5022036;28;20044;-76
2022/09/06 09:31:37;;;;;;;5.55;2.58;;;25.20;95.30;;;;;;5018029;28;20033;-76
2022/09/06 09:34:03;;;;;;;4.47;2.60;;;25.40;94.60;;;;;;5006274;28;20065;-76
2022/09/06 09:36:30;;;;;;;6.10;3.15;;;25.50;94.30;;;;;;5006528;28;20492;-77
2022/09/06 09:38:57;;;;;;;10.35;3.50;;;25.60;93.60;;;;;;5008892;28;20038;-76
2022/09/06 09:41:31;;;;;;;7.07;3.05;;;25.60;93.60;;;;;;5015520;28;20044;-76
2022/09/06 09:44:03;;;;;;;7.60;3.10;;;25.60;93.70;;;;;;5025952;28;20037;-77
2022/09/06 09:46:34;;;;;;;8.97;3.10;;;25.60;93.70;;;;;;5024330;28;20032;-77
2022/09/06 09:49:27;;;;;;;8.27;3.20;;;25.70;93.00;;;;;;5021799;28;20136;-77
2022/09/06 09:52:04;;;;;;;4.57;3.00;;;25.70;92.70;;;;;;5015251;28;20033;-76
2022/09/06 09:54:32;;;;;;;3.83;2.47;;;25.70;92.70;;;;;;5026819;28;20033;-76
2022/09/06 09:56:58;;;;;;;4.70;2.78;;;25.80;92.70;;;;;;5028235;28;20658;-76
2022/09/06 09:59:52;;;;;;;4.53;2.83;;;25.80;92.40;;;;;;5018922;28;20041;-77
2022/09/06 10:02:32;;;;;;;10.63;3.08;;;26.00;92.50;;;;;;5021389;28;20646;-76
2022/09/06 10:05:05;;;;;;;8.00;2.80;;;26.20;91.90;;;;;;5011129;28;20121;-76
2022/09/06 10:07:31;;;;;;;;;;;26.30;90.90;;;;;;5010383;28;20076;-75
2022/09/06 10:10:03;;;;;;;3.67;2.72;;;26.40;90.50;;;;;;5019219;28;20607;-77
2022/09/06 10:12:30;;;;;;;6.97;2.92;;;26.50;90.50;;;;;;5007162;28;20444;-76
2022/09/06 10:14:56;;;;;;;3.92;2.92;;;26.60;90.50;;;;;;5007596;28;20565;-77
2022/09/06 10:17:37;;;;;;;7.03;2.90;;;26.70;90.00;;;;;;5013397;28;20109;-76
2022/09/06 10:20:09;;;;;;;4.65;2.83;;;26.80;90.00;;;;;;5010083;28;20105;-76
2022/09/06 10:22:55;;;;;;;3.30;2.83;;;26.90;89.80;;;;;;5026426;28;20030;-76
2022/09/06 10:25:46;;;;;;;5.82;2.75;;;27.00;89.20;;;;;;5016310;28;20040;-76
2022/09/06 10:28:25;;;;;;;4.55;2.70;;;27.10;87.60;;;;;;5024878;28;20552;-77
2022/09/06 10:31:09;;;;;;;6.78;2.78;;;27.20;87.60;;;;;;5018456;28;20074;-77
2022/09/06 10:34:04;;;;;;;7.28;3.08;;;27.30;87.10;;;;;;5015178;28;20028;-76
2022/09/06 10:36:51;;;;;;;5.22;2.67;;;27.40;87.40;;;;;;4980616;28;20045;-77
2022/09/06 10:39:53;;;;;;;7.97;2.75;;;27.40;86.40;;;;;;5011496;28;20041;-76
2022/09/06 10:42:31;;;;;;;7.28;2.85;;;27.40;86.20;;;;;;5007462;28;20409;-76
2022/09/06 10:45:02;;;;;;;4.43;2.85;;;27.70;85.30;;;;;;5009525;28;20030;-77
2022/09/06 10:47:36;;;;;;;5.88;2.35;;;27.80;83.60;;;;;;5020334;28;20495;-76
2022/09/06 10:50:04;;;;;;;6.10;2.70;;;27.90;82.60;;;;;;5025427;28;21135;-77
2022/09/06 10:52:39;;;;;;;6.30;2.40;;;28.00;81.10;;;;;;5005759;28;20032;-77
2022/09/06 10:55:08;;;;;;;5.63;2.30;;;28.00;81.70;;;;;;5011144;28;20033;-77
2022/09/06 10:57:40;;;;;;;3.00;2.38;;;28.00;80.10;;;;;;5018378;28;20036;-77
2022/09/06 11:00:14;;;;;;;3.33;2.20;;;28.10;79.20;;;;;;5023541;28;20045;-76
2022/09/06 11:03:03;;;;;;;3.85;1.90;;;28.10;78.60;;;;;;5017979;28;20030;-77
2022/09/06 11:05:39;;;;;;;5.82;1.98;;;28.20;76.90;;;;;;5022577;28;20041;-76
2022/09/06 11:08:14;;;;;;;3.65;2.00;;;28.30;74.80;;;;;;5025885;28;20025;-77
2022/09/06 11:10:44;;;;;;;7.07;2.00;;;28.40;74.10;;;;;;5026905;28;20496;-77
2022/09/06 11:13:18;;;;;;;5.20;1.65;;;28.40;72.30;;;;;;5008522;28;20224;-77
2022/09/06 11:16:05;;;;;;;3.08;1.30;;;28.50;73.30;;;;;;5017906;28;20103;-76
2022/09/06 11:18:39;;;;;;;2.33;1.30;;;28.50;71.10;;;;;;5019539;28;20034;-76
2022/09/06 11:21:30;;;;;;;2.80;1.63;;;28.60;70.40;;;;;;5024901;28;20103;-77
2022/09/06 11:24:29;;;;;;;6.50;1.60;;;28.60;70.90;;;;;;5016684;28;20248;-77
2022/09/06 11:27:04;;;;;;;3.40;1.50;;;28.70;71.00;;;;;;5009150;28;20532;-70
2022/09/06 11:29:32;;;;;;;4.18;1.15;;;28.70;68.90;;;;;;4320270;28;10000970;-70
2022/09/06 11:32:00;;;;;;;1.45;1.10;;;28.70;67.80;;;;;;5021610;28;20072;-70
2022/09/06 11:34:35;;;;;;;4.20;1.10;;;28.80;67.80;;;;;;5027562;28;20118;-71
2022/09/06 11:37:05;;;;;;;1.77;1.30;;;29.00;66.50;;;;;;5027020;28;20127;-70
2022/09/06 11:39:41;;;;;;;1.27;1.17;;;29.00;65.70;;;;;;5028033;28;20029;-70
2022/09/06 11:42:28;;;;;;;2.83;1.20;;;29.10;65.50;;;;;;5025833;28;20163;-71
2022/09/06 11:44:56;;;;;;;4.43;1.10;;;29.00;64.00;;;;;;5029600;28;20021;-70
2022/09/06 11:47:38;;;;;;;8.95;1.40;;;29.00;65.00;;;;;;5025980;28;20154;-70
2022/09/06 11:50:19;;;;;;;1.65;1.20;;;29.10;65.70;;;;;;5021354;28;20014;-71
2022/09/06 11:53:01;;;;;;;4.18;1.40;;;29.10;65.10;;;;;;5025623;28;20029;-70
2022/09/06 11:55:43;;;;;;;3.80;1.23;;;29.30;62.90;;;;;;5022782;28;20033;-71
2022/09/06 11:58:43;;;;;;;5.75;1.30;;;29.20;63.20;;;;;;5027719;28;20635;-70
2022/09/06 12:01:12;;;;;;;2.45;1.13;;;29.30;62.70;;;;;;5024063;28;20021;-70
2022/09/06 12:03:46;;;;;;;3.10;1.17;;;29.30;62.60;;;;;;5004011;28;20096;-70
2022/09/06 12:06:18;;;;;;;3.00;1.10;;;29.30;62.40;;;;;;5012701;28;20033;-71
2022/09/06 12:08:45;;;;;;;1.77;1.30;;;29.20;61.80;;;;;;5011269;28;20091;-70
2022/09/06 12:11:33;;;;;;;1.77;1.00;;;29.20;61.70;;;;;;5010823;28;20101;-71
2022/09/06 12:14:08;;;;;;;5.68;1.10;;;29.20;61.90;;;;;;5011664;28;20056;-77
2022/09/06 12:17:03;;;;;;;3.65;1.13;;;29.30;62.90;;;;;;5003490;28;20116;-77
2022/09/06 12:19:50;;;;;;;3.30;1.20;;;29.40;62.20;;;;;;5014402;28;20473;-77
2022/09/06 12:22:28;;;;;;;2.47;1.40;;;29.60;60.60;;;;;;5015638;28;20641;-78
2022/09/06 12:25:19;;;;;;;4.15;1.27;;;29.60;60.20;;;;;;5010912;28;20041;-78
2022/09/06 12:27:55;;;;;;;2.55;1.00;;;29.60;59.80;;;;;;5011211;28;20034;-78
2022/09/06 12:30:36;;;;;;;2.35;1.10;;;29.70;59.80;;;;;;5013780;28;20363;-78
2022/09/06 12:33:14;;;;;;;6.20;1.17;;;29.80;59.90;;;;;;5001885;28;20030;-77
2022/09/06 12:35:39;;;;;;;1.63;1.10;;;29.90;60.80;;;;;;5014203;28;20484;-78
2022/09/06 12:38:17;;;;;;;1.85;1.17;;;30.00;59.90;;;;;;5012838;28;20022;-78
2022/09/06 12:40:48;;;;;;;6.35;1.20;;;30.10;59.10;;;;;;5017332;28;21871;-79
2022/09/06 12:43:16;;;;;;;1.73;0.90;;;30.10;58.50;;;;;;5002761;28;20710;-78
2022/09/06 12:45:50;;;;;;;3.28;1.10;;;29.90;58.40;;;;;;5013288;28;20390;-78
2022/09/06 12:48:28;;;;;;;5.03;1.20;;;29.80;58.70;;;;;;5006780;28;20038;-78
2022/09/06 12:51:05;;;;;;;1.05;0.90;;;29.70;58.00;;;;;;5015358;28;20182;-78
2022/09/06 12:53:33;;;;;;;4.88;1.10;;;29.80;58.50;;;;;;5017233;28;20034;-78
2022/09/06 12:56:05;;;;;;;2.40;1.00;;;29.80;58.50;;;;;;5011212;28;20032;-78
2022/09/06 12:58:31;;;;;;;3.90;1.10;;;29.90;59.20;;;;;;5008886;28;20144;-78
2022/09/06 13:01:28;;;;;;;1.90;1.02;;;29.90;59.00;;;;;;5009262;28;20112;-78
2022/09/06 13:04:14;;;;;;;4.28;1.25;;;29.80;58.50;;;;;;5014902;28;20030;-78
2022/09/06 13:06:44;;;;;;;2.05;1.08;;;29.60;58.40;;;;;;5003161;28;20509;-77
2022/09/06 13:09:14;;;;;;;3.45;0.98;;;29.50;58.40;;;;;;5016252;28;20159;-77